Time;durP1;ratioP1;P1;durP2;ratioP2;P2;SDS_P1;SDS_P2;PMS_P1;PMS_P2;Temp;Humidity;BMP_temperature;BMP_pressure;BME280_temperature;BME280_humidity;BME280_pressure;Samples;Min_cycle;Max_cycle;Signal;HPM_P1;HPM_P2
2022/01/06 00:00:12;;;;;;;2.40;2.20;;;5.90;1.00;;;;;;5068346;28;20428;-58
2022/01/06 00:02:37;;;;;;;2.27;1.83;;;5.80;1.00;;;;;;5068835;28;20473;-58
2022/01/06 00:05:04;;;;;;;2.63;1.90;;;5.70;1.00;;;;;;5073089;28;20947;-59
2022/01/06 00:07:31;;;;;;;3.40;2.50;;;5.70;1.00;;;;;;5069038;28;20267;-58
2022/01/06 00:09:56;;;;;;;2.30;2.10;;;5.70;1.00;;;;;;5064848;28;20442;-58
2022/01/06 00:12:28;;;;;;;5.50;3.20;;;5.60;1.00;;;;;;5071421;28;21301;-58
2022/01/06 00:15:02;;;;;;;7.60;2.53;;;5.60;1.00;;;;;;5070863;28;20189;-58
2022/01/06 00:25:30;;;;;;;2.93;2.20;;;5.40;1.00;;;;;;5070920;28;20448;-56
2022/01/06 00:27:55;;;;;;;3.30;2.57;;;5.30;1.00;;;;;;5067515;28;20450;-58
2022/01/06 00:30:21;;;;;;;3.50;2.80;;;5.30;1.00;;;;;;5071315;28;20241;-58
2022/01/06 00:32:46;;;;;;;4.13;2.90;;;5.20;1.00;;;;;;5069594;28;20227;-57
2022/01/06 00:35:13;;;;;;;4.17;3.30;;;5.10;8.90;;;;;;5066812;28;20612;-58
2022/01/06 00:37:38;;;;;;;3.80;2.47;;;5.00;2.60;;;;;;5069483;28;20204;-57
2022/01/06 00:40:04;;;;;;;2.97;2.67;;;4.90;13.60;;;;;;5054044;28;20533;-57
2022/01/06 00:42:30;;;;;;;4.17;2.70;;;4.80;19.90;;;;;;5067610;28;20186;-58
2022/01/06 00:44:55;;;;;;;6.73;2.27;;;4.70;33.40;;;;;;5072331;28;20450;-57
2022/01/06 00:47:21;;;;;;;3.03;2.43;;;4.80;46.00;;;;;;5070128;28;20190;-57
2022/01/06 00:49:47;;;;;;;4.17;2.53;;;;;;;;;;5063468;28;20641;-58
2022/01/06 00:52:13;;;;;;;3.80;2.10;;;4.60;38.70;;;;;;5066685;28;20568;-55
2022/01/06 00:54:39;;;;;;;3.23;2.20;;;4.60;39.10;;;;;;5065430;28;22250;-58
2022/01/06 00:57:04;;;;;;;3.90;1.80;;;4.60;39.70;;;;;;5067111;28;20196;-57
2022/01/06 00:59:30;;;;;;;1.83;1.53;;;4.60;40.30;;;;;;5068739;28;20450;-58
2022/01/06 01:01:56;;;;;;;3.30;1.90;;;;;;;;;;5069986;28;20203;-57
2022/01/06 01:04:22;;;;;;;3.80;1.70;;;4.70;37.00;;;;;;5067767;28;20509;-56
2022/01/06 01:06:48;;;;;;;4.27;1.23;;;4.80;36.50;;;;;;5068403;28;21000;-58
2022/01/06 01:09:13;;;;;;;1.83;1.20;;;4.80;29.40;;;;;;5067109;28;20305;-55
2022/01/06 01:11:39;;;;;;;1.63;1.00;;;;;;;;;;5066147;28;20554;-58
2022/01/06 01:17:03;;;;;;;1.37;1.20;;;5.00;27.30;;;;;;5020090;28;20461;-57
2022/01/06 01:19:30;;;;;;;1.53;1.20;;;5.00;19.70;;;;;;5067735;28;20441;-57
2022/01/06 01:21:56;;;;;;;1.47;1.00;;;5.10;17.40;;;;;;5070334;28;20452;-59
2022/01/06 01:24:23;;;;;;;1.40;1.23;;;5.10;13.70;;;;;;5065903;28;20503;-58
2022/01/06 01:26:49;;;;;;;1.20;1.10;;;5.10;16.80;;;;;;5062491;28;20627;-57
2022/01/06 01:29:17;;;;;;;1.43;1.10;;;;;;;;;;5066086;28;20452;-58
2022/01/06 01:31:50;;;;;;;4.63;1.20;;;5.10;14.50;;;;;;5067372;28;20209;-58
2022/01/06 01:34:22;;;;;;;0.83;0.63;;;5.00;16.70;;;;;;5068150;28;20474;-58
2022/01/06 01:36:48;;;;;;;1.17;0.80;;;5.00;22.60;;;;;;5065694;28;20534;-59
2022/01/06 01:39:13;;;;;;;0.70;0.70;;;4.90;18.10;;;;;;5068855;28;20523;-58
2022/01/06 01:41:39;;;;;;;0.83;0.80;;;5.00;18.10;;;;;;5067917;28;20185;-57
2022/01/06 01:44:12;;;;;;;1.17;1.03;;;4.90;20.30;;;;;;5070967;28;20186;-58
2022/01/06 01:46:44;;;;;;;3.67;1.00;;;4.90;18.10;;;;;;5070986;28;20467;-57
2022/01/06 01:49:28;;;;;;;5.17;1.77;;;5.00;20.30;;;;;;5068016;28;20442;-57
2022/01/06 01:51:54;;;;;;;5.40;1.67;;;;;;;;;;5063094;28;20477;-55
2022/01/06 01:54:20;;;;;;;5.57;1.87;;;5.30;4.60;;;;;;5066213;28;20437;-58
2022/01/06 01:56:46;;;;;;;3.27;1.60;;;5.40;1.00;;;;;;5068822;28;20799;-56
2022/01/06 01:59:13;;;;;;;1.87;1.60;;;5.40;1.00;;;;;;5070456;28;20194;-56
2022/01/06 02:01:39;;;;;;;3.03;1.57;;;5.30;1.00;;;;;;5055986;28;20454;-57
2022/01/06 02:04:05;;;;;;;6.63;1.67;;;5.20;1.00;;;;;;5052299;28;20438;-57
2022/01/06 02:06:31;;;;;;;5.00;1.97;;;;;;;;;;5054612;28;20184;-57
2022/01/06 02:08:56;;;;;;;8.10;2.10;;;5.10;24.40;;;;;;5075151;28;20184;-56
2022/01/06 02:11:25;;;;;;;3.60;1.97;;;5.10;31.30;;;;;;5070502;28;20453;-57
2022/01/06 02:13:58;;;;;;;6.33;1.90;;;5.10;39.10;;;;;;5072202;28;20659;-58
2022/01/06 02:16:26;;;;;;;4.20;2.17;;;5.10;35.80;;;;;;5070126;28;20475;-56
2022/01/06 02:18:53;;;;;;;5.87;1.60;;;5.10;36.70;;;;;;5067864;28;20856;-57
2022/01/06 02:21:20;;;;;;;4.27;1.80;;;5.00;45.60;;;;;;5070720;28;20448;-58
2022/01/06 02:23:46;;;;;;;4.73;1.77;;;5.00;54.90;;;;;;5082066;28;20592;-57
2022/01/06 02:26:12;;;;;;;2.90;1.93;;;5.10;63.10;;;;;;5075778;28;20822;-57
2022/01/06 02:28:40;;;;;;;5.07;1.30;;;5.10;60.10;;;;;;5066355;28;20257;-57
2022/01/06 02:31:05;;;;;;;2.40;1.40;;;5.10;52.20;;;;;;5070100;28;20974;-57
2022/01/06 02:33:31;;;;;;;3.77;1.70;;;;;;;;;;5069229;28;20469;-57
2022/01/06 02:35:57;;;;;;;7.70;2.53;;;5.30;52.40;;;;;;5070964;28;20188;-58
2022/01/06 02:38:23;;;;;;;4.30;2.03;;;5.20;43.20;;;;;;5071902;28;20461;-58
2022/01/06 02:40:49;;;;;;;3.40;1.70;;;5.20;36.80;;;;;;5071089;28;20186;-58
2022/01/06 02:43:18;;;;;;;3.70;1.53;;;5.20;28.90;;;;;;5067326;28;20457;-58
2022/01/06 02:45:45;;;;;;;3.30;1.10;;;5.30;25.80;;;;;;5072324;28;20791;-56
2022/01/06 02:48:12;;;;;;;8.13;2.03;;;5.30;22.70;;;;;;5069767;28;20549;-58
2022/01/06 02:50:41;;;;;;;2.00;1.53;;;5.20;22.60;;;;;;5070694;28;20493;-57
2022/01/06 02:53:08;;;;;;;2.70;1.23;;;5.20;23.20;;;;;;5070055;28;20503;-57
2022/01/06 02:55:35;;;;;;;5.07;1.33;;;4.90;31.10;;;;;;5071368;28;20458;-58
2022/01/06 02:58:01;;;;;;;2.23;1.00;;;;;;;;;;5071173;28;20444;-58
2022/01/06 03:00:27;;;;;;;2.90;1.40;;;4.60;98.40;;;;;;5072818;28;20545;-57
2022/01/06 03:02:52;;;;;;;2.77;1.30;;;4.50;99.90;;;;;;5057314;28;20445;-57
2022/01/06 03:05:19;;;;;;;2.73;1.30;;;4.50;99.90;;;;;;5072860;28;20540;-57
2022/01/06 03:07:46;;;;;;;3.60;1.70;;;4.60;99.90;;;;;;5072663;28;20454;-57
2022/01/06 03:10:15;;;;;;;4.17;1.47;;;4.60;99.90;;;;;;5058508;28;20528;-56
2022/01/06 03:12:41;;;;;;;1.30;1.20;;;4.60;99.90;;;;;;5071860;28;20464;-55
2022/01/06 03:15:12;;;;;;;6.17;2.53;;;4.60;99.90;;;;;;5072951;28;20498;-54
2022/01/06 03:17:39;;;;;;;14.30;2.10;;;4.50;99.90;;;;;;5066442;28;20446;-56
2022/01/06 03:20:06;;;;;;;4.93;2.23;;;4.70;99.90;;;;;;5069920;28;20438;-56
2022/01/06 03:22:32;;;;;;;3.33;2.33;;;4.60;99.90;;;;;;5053348;28;21041;-55
2022/01/06 03:24:59;;;;;;;6.60;2.13;;;4.70;99.90;;;;;;5071489;28;20586;-55
2022/01/06 03:27:24;;;;;;;7.87;2.70;;;4.70;99.90;;;;;;5069377;28;20440;-56
2022/01/06 03:29:50;;;;;;;9.40;2.93;;;4.70;99.90;;;;;;5070181;28;20450;-56
2022/01/06 03:32:19;;;;;;;7.60;2.00;;;4.70;99.90;;;;;;5059419;28;20268;-56
2022/01/06 03:34:46;;;;;;;9.10;3.07;;;4.70;99.90;;;;;;5074560;28;20592;-56
2022/01/06 03:37:13;;;;;;;5.80;1.73;;;4.60;99.90;;;;;;5051547;28;20485;-55
2022/01/06 03:39:39;;;;;;;8.20;2.90;;;4.40;99.90;;;;;;5068500;28;20450;-56
2022/01/06 03:42:05;;;;;;;4.17;2.20;;;;;;;;;;5066833;28;20806;-56
2022/01/06 03:44:31;;;;;;;5.73;2.43;;;4.30;99.90;;;;;;5071251;28;20439;-55
2022/01/06 03:46:57;;;;;;;2.47;2.20;;;4.40;99.90;;;;;;5053804;28;20968;-55
2022/01/06 03:49:23;;;;;;;7.57;2.30;;;4.40;99.90;;;;;;5071216;28;20529;-55
2022/01/06 03:51:49;;;;;;;6.60;2.07;;;4.50;99.90;;;;;;5069073;28;20260;-56
2022/01/06 03:54:15;;;;;;;3.73;1.93;;;4.50;99.90;;;;;;5074457;28;20203;-56
2022/01/06 03:56:41;;;;;;;4.93;1.70;;;4.50;99.90;;;;;;5066429;28;20450;-55
2022/01/06 03:59:06;;;;;;;3.23;1.87;;;4.60;99.90;;;;;;5070349;28;20450;-55
2022/01/06 04:01:32;;;;;;;2.63;1.73;;;4.70;99.90;;;;;;5053117;28;20189;-55
2022/01/06 04:03:58;;;;;;;2.70;1.70;;;4.70;99.90;;;;;;5069667;28;20262;-57
2022/01/06 04:06:24;;;;;;;6.07;2.07;;;;;;;;;;5069296;28;20906;-55
2022/01/06 04:08:50;;;;;;;9.10;1.67;;;;;;;;;;5068393;28;20195;-56
2022/01/06 04:11:16;;;;;;;3.63;1.77;;;4.80;99.90;;;;;;5066895;28;20969;-55
2022/01/06 04:13:41;;;;;;;1.47;1.20;;;4.80;99.90;;;;;;5072441;28;20510;-55
2022/01/06 04:16:09;;;;;;;3.43;1.73;;;4.80;99.90;;;;;;5070191;28;20188;-56
2022/01/06 04:18:36;;;;;;;4.83;1.57;;;4.80;99.90;;;;;;5070964;28;20181;-56
2022/01/06 04:21:02;;;;;;;3.20;1.23;;;;;;;;;;5066837;28;20454;-56
2022/01/06 04:23:28;;;;;;;1.20;1.10;;;;;;;;;;5066143;28;20484;-56
2022/01/06 04:25:53;;;;;;;8.20;1.60;;;4.20;99.90;;;;;;5068855;28;20933;-55
2022/01/06 04:28:19;;;;;;;1.97;1.10;;;4.10;99.90;;;;;;5066296;28;20453;-57
2022/01/06 04:30:44;;;;;;;1.67;1.27;;;3.90;90.30;;;;;;5068322;28;20194;-56
2022/01/06 04:33:10;;;;;;;1.67;1.43;;;;;;;;;;5069964;28;20211;-57
2022/01/06 04:35:36;;;;;;;5.20;1.70;;;;;;;;;;5077201;28;20198;-57
2022/01/06 04:38:02;;;;;;;4.53;1.60;;;;;;;;;;5066717;28;21631;-56
2022/01/06 04:40:28;;;;;;;1.80;1.33;;;3.80;93.20;;;;;;5067720;28;20894;-56
2022/01/06 04:42:53;;;;;;;5.23;1.63;;;3.80;96.20;;;;;;5069730;28;20469;-57
2022/01/06 04:45:19;;;;;;;2.43;1.50;;;3.90;93.40;;;;;;5053820;28;20224;-56
2022/01/06 04:47:45;;;;;;;2.77;1.70;;;;;;;;;;5071652;28;20313;-56
2022/01/06 04:50:10;;;;;;;4.20;1.70;;;3.90;91.10;;;;;;5055217;28;20194;-56
2022/01/06 04:52:36;;;;;;;2.73;2.10;;;;;;;;;;5071546;28;20472;-54
2022/01/06 04:55:03;;;;;;;4.10;2.03;;;4.10;91.90;;;;;;5059744;28;20567;-56
2022/01/06 04:57:28;;;;;;;4.20;2.10;;;4.10;97.20;;;;;;5072275;28;20453;-56
2022/01/06 04:59:54;;;;;;;4.30;2.07;;;4.10;99.90;;;;;;5067173;28;20774;-55
2022/01/06 05:02:19;;;;;;;2.33;2.00;;;4.10;99.90;;;;;;5047561;28;20201;-57
2022/01/06 05:04:45;;;;;;;2.60;2.30;;;;;;;;;;5064664;28;20196;-56
2022/01/06 05:07:11;;;;;;;3.03;1.93;;;4.00;99.90;;;;;;5069572;28;20187;-56
2022/01/06 05:09:37;;;;;;;3.50;2.10;;;;;;;;;;5067773;28;20487;-55
2022/01/06 05:12:03;;;;;;;2.47;1.60;;;4.00;99.90;;;;;;5061639;28;20364;-56
2022/01/06 05:14:28;;;;;;;3.60;2.07;;;4.00;99.90;;;;;;5078882;28;20449;-56
2022/01/06 05:16:56;;;;;;;2.90;2.07;;;4.00;98.60;;;;;;5069470;28;20470;-56
2022/01/06 05:19:23;;;;;;;2.60;1.70;;;4.00;94.70;;;;;;5075471;28;20180;-56
2022/01/06 05:21:48;;;;;;;4.57;2.33;;;4.00;91.50;;;;;;5075056;28;20853;-55
2022/01/06 05:24:15;;;;;;;1.97;1.60;;;4.00;88.70;;;;;;5073462;28;20440;-57
2022/01/06 05:26:42;;;;;;;2.73;1.40;;;4.10;68.30;;;;;;5073166;28;20602;-56
2022/01/06 05:29:10;;;;;;;4.43;1.70;;;4.00;27.60;;;;;;5070326;28;20978;-55
2022/01/06 05:31:36;;;;;;;2.93;1.40;;;3.90;22.30;;;;;;5070571;28;20430;-59
2022/01/06 05:34:01;;;;;;;3.47;1.97;;;3.70;1.00;;;;;;5073887;28;20446;-57
2022/01/06 05:36:27;;;;;;;1.50;1.40;;;;;;;;;;5061171;28;20187;-56
2022/01/06 05:38:53;;;;;;;5.03;1.60;;;3.50;1.00;;;;;;5077080;28;20226;-55
2022/01/06 05:41:19;;;;;;;1.40;1.30;;;3.50;1.00;;;;;;5062497;28;20454;-56
2022/01/06 05:43:44;;;;;;;3.27;1.60;;;;;;;;;;5080061;28;20244;-56
2022/01/06 05:46:10;;;;;;;6.80;1.90;;;3.30;1.00;;;;;;5081297;28;20693;-55
2022/01/06 05:48:36;;;;;;;4.63;1.57;;;;;;;;;;5075010;28;20450;-55
2022/01/06 05:51:02;;;;;;;1.37;1.10;;;;;;;;;;5076938;28;20183;-56
2022/01/06 05:53:29;;;;;;;3.37;1.87;;;;;;;;;;5077721;28;20884;-55
2022/01/06 05:55:55;;;;;;;5.73;1.97;;;3.10;1.00;;;;;;5073830;28;20934;-56
2022/01/06 05:58:21;;;;;;;1.90;1.63;;;;;;;;;;5077235;28;20437;-56
2022/01/06 06:00:49;;;;;;;3.07;1.60;;;3.20;1.00;;;;;;5078573;28;20180;-56
2022/01/06 06:03:14;;;;;;;2.93;1.60;;;3.20;1.00;;;;;;5074552;28;20456;-55
2022/01/06 06:05:41;;;;;;;4.10;1.80;;;;;;;;;;5078158;28;20437;-56
2022/01/06 06:08:08;;;;;;;2.60;2.23;;;3.30;1.00;;;;;;5079700;28;20214;-56
2022/01/06 06:10:34;;;;;;;3.87;1.60;;;;;;;;;;5073878;28;20818;-57
2022/01/06 06:12:59;;;;;;;4.10;2.17;;;3.50;1.00;;;;;;5075837;28;20491;-56
2022/01/06 06:15:25;;;;;;;7.50;2.40;;;3.40;1.00;;;;;;5073029;28;20477;-56
2022/01/06 06:17:50;;;;;;;3.43;1.97;;;3.50;1.00;;;;;;5075283;28;20182;-56
2022/01/06 06:20:16;;;;;;;8.10;2.10;;;;;;;;;;5073237;28;20242;-57
2022/01/06 06:22:42;;;;;;;4.83;2.10;;;3.40;1.00;;;;;;5078272;28;20225;-57
2022/01/06 06:25:08;;;;;;;3.20;1.80;;;3.30;1.00;;;;;;5079340;28;20437;-57
2022/01/06 06:27:34;;;;;;;1.77;1.67;;;3.10;1.00;;;;;;5074062;28;20189;-56
2022/01/06 06:29:59;;;;;;;4.70;1.60;;;3.20;1.00;;;;;;5080762;28;20439;-56
2022/01/06 06:32:27;;;;;;;3.90;1.63;;;3.20;1.00;;;;;;5076588;28;20561;-56
2022/01/06 06:34:53;;;;;;;1.40;1.30;;;3.10;1.00;;;;;;5094968;28;20232;-56
2022/01/06 06:37:18;;;;;;;3.30;1.77;;;3.10;1.00;;;;;;5080801;28;20485;-57
2022/01/06 06:39:44;;;;;;;1.87;1.23;;;3.00;1.00;;;;;;5077938;28;20541;-57
2022/01/06 06:42:09;;;;;;;2.33;1.40;;;2.90;1.00;;;;;;5075190;28;20648;-57
2022/01/06 06:44:35;;;;;;;2.80;1.30;;;2.90;1.00;;;;;;5071367;28;20191;-57
2022/01/06 06:47:01;;;;;;;5.37;1.70;;;2.80;1.00;;;;;;5073852;28;20259;-56
2022/01/06 06:49:28;;;;;;;4.57;1.10;;;;;;;;;;5076384;28;20202;-57
2022/01/06 06:51:55;;;;;;;1.23;0.83;;;2.70;1.00;;;;;;5076560;28;20171;-56
2022/01/06 06:54:21;;;;;;;4.53;1.67;;;2.60;1.00;;;;;;5078563;28;20912;-56
2022/01/06 06:56:46;;;;;;;4.20;1.33;;;2.60;1.00;;;;;;5079173;28;20438;-56
2022/01/06 06:59:12;;;;;;;2.30;1.40;;;2.60;1.00;;;;;;5093860;28;20437;-56
2022/01/06 07:01:38;;;;;;;1.50;1.30;;;;;;;;;;5073037;28;20191;-57
2022/01/06 07:04:04;;;;;;;4.67;1.60;;;2.40;1.00;;;;;;5073918;28;20193;-54
2022/01/06 07:06:30;;;;;;;4.03;1.70;;;;;;;;;;5058647;28;20442;-56
2022/01/06 07:08:55;;;;;;;1.73;1.40;;;2.40;1.00;;;;;;5078273;28;20182;-56
2022/01/06 07:11:22;;;;;;;1.30;1.20;;;2.50;1.00;;;;;;5055287;28;20458;-56
2022/01/06 07:13:47;;;;;;;3.77;1.17;;;2.40;1.00;;;;;;5073007;28;20203;-56
2022/01/06 07:16:13;;;;;;;8.23;2.13;;;;;;;;;;5078365;28;20465;-56
2022/01/06 07:18:39;;;;;;;2.50;1.17;;;;;;;;;;5056479;28;20276;-57
2022/01/06 07:21:05;;;;;;;5.37;1.47;;;;;;;;;;5071603;28;20445;-55
2022/01/06 07:23:31;;;;;;;3.10;1.00;;;;;;;;;;5075062;28;20540;-56
2022/01/06 07:25:57;;;;;;;3.40;1.60;;;;;;;;;;5075130;28;20450;-56
2022/01/06 07:28:22;;;;;;;3.77;0.97;;;2.40;1.00;;;;;;5074898;28;20543;-55
2022/01/06 07:30:48;;;;;;;4.17;1.43;;;2.40;1.00;;;;;;5072641;28;20449;-56
2022/01/06 07:33:14;;;;;;;3.60;1.10;;;;;;;;;;5073282;28;20221;-56
2022/01/06 07:35:40;;;;;;;3.13;1.70;;;;;;;;;;5074244;28;20191;-58
2022/01/06 07:38:05;;;;;;;2.87;1.03;;;2.30;1.00;;;;;;5071911;28;20437;-57
2022/01/06 07:40:31;;;;;;;5.13;2.00;;;;;;;;;;5071821;28;20536;-55
2022/01/06 07:42:57;;;;;;;1.73;0.90;;;2.30;1.00;;;;;;5072433;28;20190;-57
2022/01/06 07:45:22;;;;;;;2.37;1.70;;;2.20;1.00;;;;;;5075548;28;20912;-57
2022/01/06 07:48:03;;;;;;;1.83;1.17;;;2.20;1.00;;;;;;5073963;28;20187;-56
2022/01/06 07:50:33;;;;;;;2.40;1.10;;;2.40;1.00;;;;;;5072768;28;20187;-57
2022/01/06 07:52:59;;;;;;;1.80;1.70;;;2.40;1.00;;;;;;5073900;28;20594;-56
2022/01/06 07:55:26;;;;;;;2.83;1.20;;;2.40;1.00;;;;;;5072737;28;20815;-56
2022/01/06 07:57:51;;;;;;;2.77;1.67;;;2.40;1.00;;;;;;5074549;28;20474;-57
2022/01/06 08:00:18;;;;;;;2.00;1.37;;;2.30;1.00;;;;;;5071098;28;20430;-57
2022/01/06 08:02:45;;;;;;;2.00;1.50;;;;;;;;;;5080360;28;20445;-56
2022/01/06 08:05:13;;;;;;;1.87;1.43;;;2.40;1.00;;;;;;5059460;28;20446;-57
2022/01/06 08:07:39;;;;;;;3.50;1.20;;;;;;;;;;5075937;28;20481;-56
2022/01/06 08:10:06;;;;;;;1.33;0.90;;;2.40;1.00;;;;;;5071211;28;20951;-55
2022/01/06 08:12:32;;;;;;;2.27;1.10;;;2.30;1.00;;;;;;5072637;28;20477;-56
2022/01/06 08:14:57;;;;;;;1.90;1.33;;;2.30;1.00;;;;;;5079904;28;20441;-54
2022/01/06 08:17:26;;;;;;;1.40;0.90;;;2.40;1.00;;;;;;5075613;28;20175;-56
2022/01/06 08:19:52;;;;;;;1.23;1.10;;;2.40;1.00;;;;;;5055506;28;21423;-56
2022/01/06 08:22:21;;;;;;;4.67;1.70;;;2.50;1.00;;;;;;5074367;28;20473;-55
2022/01/06 08:24:46;;;;;;;3.80;1.57;;;2.50;1.00;;;;;;5073721;28;20190;-57
2022/01/06 08:27:12;;;;;;;3.87;1.13;;;2.70;1.00;;;;;;5079842;28;20470;-57
2022/01/06 08:29:38;;;;;;;2.17;1.33;;;2.60;1.00;;;;;;5074873;28;20184;-55
2022/01/06 08:32:05;;;;;;;2.47;1.53;;;2.60;1.00;;;;;;5071093;28;20214;-56
2022/01/06 08:34:30;;;;;;;2.50;1.07;;;2.50;1.00;;;;;;5077452;28;20803;-56
2022/01/06 08:36:56;;;;;;;1.13;0.80;;;2.60;1.00;;;;;;5070448;28;20448;-56
2022/01/06 08:39:22;;;;;;;2.93;0.90;;;;;;;;;;5073073;28;20266;-56
2022/01/06 08:41:49;;;;;;;5.10;1.60;;;2.60;1.00;;;;;;5070733;28;20183;-56
2022/01/06 08:44:15;;;;;;;2.93;1.00;;;2.60;1.00;;;;;;5077566;28;20469;-57
2022/01/06 08:46:41;;;;;;;5.73;1.20;;;;;;;;;;5075799;28;21112;-56
2022/01/06 08:49:11;;;;;;;2.83;1.00;;;2.90;1.00;;;;;;5076633;28;20522;-55
2022/01/06 08:51:38;;;;;;;3.80;1.70;;;3.00;1.00;;;;;;5071654;28;20520;-56
2022/01/06 08:54:03;;;;;;;5.47;1.50;;;;;;;;;;5072761;28;20466;-55
2022/01/06 08:56:29;;;;;;;2.87;1.50;;;;;;;;;;5059967;28;20434;-57
2022/01/06 08:58:55;;;;;;;1.83;1.00;;;;;;;;;;5057752;28;20448;-57
2022/01/06 09:01:21;;;;;;;6.33;1.20;;;3.20;1.00;;;;;;5071097;28;20445;-57
2022/01/06 09:03:47;;;;;;;4.33;1.40;;;;;;;;;;5070295;28;20441;-55
2022/01/06 09:06:13;;;;;;;2.60;1.40;;;;;;;;;;5072674;28;20442;-56
2022/01/06 09:08:39;;;;;;;2.13;1.00;;;3.30;1.00;;;;;;5081285;28;20459;-56
2022/01/06 09:11:05;;;;;;;3.27;1.30;;;3.20;1.00;;;;;;5074917;28;20549;-57
2022/01/06 09:13:31;;;;;;;5.70;1.23;;;;;;;;;;5054703;28;20200;-57
2022/01/06 09:15:57;;;;;;;4.83;1.20;;;3.20;1.00;;;;;;5072469;28;20187;-56
2022/01/06 09:18:22;;;;;;;2.90;1.93;;;3.30;1.00;;;;;;5071971;28;20458;-57
2022/01/06 09:20:48;;;;;;;8.63;1.47;;;;;;;;;;5071167;28;20438;-57
2022/01/06 09:23:14;;;;;;;3.43;1.30;;;;;;;;;;5072695;28;20290;-56
2022/01/06 09:25:40;;;;;;;3.47;1.30;;;3.30;1.00;;;;;;5072167;28;20446;-56
2022/01/06 09:28:06;;;;;;;8.03;2.30;;;;;;;;;;5072037;28;20445;-56
2022/01/06 09:30:32;;;;;;;6.17;1.47;;;;;;;;;;5070565;28;20191;-57
2022/01/06 09:32:58;;;;;;;3.17;1.30;;;;;;;;;;5058892;28;21007;-55
2022/01/06 09:35:24;;;;;;;6.33;1.53;;;3.70;1.00;;;;;;5071547;28;20524;-54
2022/01/06 09:37:50;;;;;;;2.50;1.40;;;;;;;;;;5069817;28;20529;-56
2022/01/06 09:40:16;;;;;;;7.33;2.37;;;;;;;;;;5071161;28;20208;-57
2022/01/06 09:42:42;;;;;;;1.73;1.30;;;3.70;1.00;;;;;;5069645;28;20980;-59
2022/01/06 09:45:09;;;;;;;4.90;2.20;;;3.50;1.00;;;;;;5070021;28;20449;-56
2022/01/06 09:47:37;;;;;;;2.87;1.60;;;3.50;1.00;;;;;;5070840;28;20473;-55
2022/01/06 09:50:03;;;;;;;1.30;1.10;;;3.50;1.00;;;;;;5070716;28;20701;-55
2022/01/06 09:52:29;;;;;;;2.50;1.43;;;3.50;1.00;;;;;;5069476;28;20832;-57
2022/01/06 09:54:55;;;;;;;2.10;1.50;;;3.40;1.00;;;;;;5069695;28;20430;-56
2022/01/06 09:57:21;;;;;;;2.50;1.30;;;;;;;;;;5070267;28;20183;-56
2022/01/06 09:59:48;;;;;;;4.83;1.70;;;;;;;;;;5069711;28;20180;-57
2022/01/06 10:02:16;;;;;;;3.10;1.27;;;3.30;1.00;;;;;;5070314;28;20437;-56
2022/01/06 10:04:56;;;;;;;2.53;1.97;;;3.40;1.00;;;;;;5069539;28;20530;-56
2022/01/06 10:07:22;;;;;;;3.80;1.50;;;3.60;1.00;;;;;;5069557;28;20458;-55
2022/01/06 10:09:48;;;;;;;5.37;1.20;;;;;;;;;;5070852;28;20572;-56
2022/01/06 10:12:14;;;;;;;5.20;2.07;;;;;;;;;;5071279;28;20211;-56
2022/01/06 10:14:46;;;;;;;4.23;1.70;;;3.60;1.00;;;;;;5069772;28;20458;-56
2022/01/06 10:17:17;;;;;;;3.23;1.53;;;3.50;1.00;;;;;;5069705;28;20441;-57
2022/01/06 10:19:44;;;;;;;5.97;1.60;;;3.50;1.00;;;;;;5070555;28;20446;-59
2022/01/06 10:22:19;;;;;;;5.23;1.37;;;3.40;1.00;;;;;;5075503;28;20541;-55
2022/01/06 10:24:46;;;;;;;2.90;1.70;;;3.50;1.00;;;;;;5073238;28;20945;-58
2022/01/06 10:27:23;;;;;;;4.43;1.33;;;3.70;1.00;;;;;;5073461;28;20976;-58
2022/01/06 10:29:51;;;;;;;1.63;1.40;;;3.80;1.00;;;;;;5075593;28;20532;-57
2022/01/06 10:32:22;;;;;;;2.53;1.57;;;3.80;1.00;;;;;;5077663;28;21178;-57
2022/01/06 10:34:51;;;;;;;5.90;2.07;;;3.60;1.00;;;;;;5072950;28;20535;-57
2022/01/06 10:37:17;;;;;;;5.57;1.30;;;;;;;;;;5060368;28;20458;-57
2022/01/06 10:39:45;;;;;;;4.73;1.50;;;3.50;1.00;;;;;;5073896;28;20791;-57
2022/01/06 10:42:11;;;;;;;2.43;1.20;;;3.30;1.00;;;;;;5072515;28;20470;-58
2022/01/06 10:44:51;;;;;;;2.20;0.93;;;3.30;1.00;;;;;;5076866;28;20461;-57
2022/01/06 10:47:35;;;;;;;5.13;1.43;;;3.30;1.00;;;;;;5075084;28;20449;-57
2022/01/06 10:50:07;;;;;;;1.83;1.07;;;3.50;1.00;;;;;;5073018;28;20449;-57
2022/01/06 10:52:32;;;;;;;4.30;1.40;;;3.30;1.00;;;;;;5072631;28;20472;-57
2022/01/06 10:55:09;;;;;;;4.23;1.50;;;3.50;1.00;;;;;;5072438;28;20437;-56
2022/01/06 10:57:34;;;;;;;2.77;1.17;;;3.60;1.00;;;;;;5072833;28;20179;-56
2022/01/06 11:00:00;;;;;;;1.30;1.20;;;;;;;;;;5055800;28;20447;-57
2022/01/06 11:02:26;;;;;;;5.60;1.57;;;3.80;1.00;;;;;;5072798;28;20548;-56
2022/01/06 11:04:51;;;;;;;1.30;1.20;;;3.80;1.00;;;;;;5072245;28;20438;-57
2022/01/06 11:07:17;;;;;;;2.23;1.60;;;3.70;1.00;;;;;;5072483;28;20240;-57
2022/01/06 11:09:47;;;;;;;2.27;1.57;;;;;;;;;;5073133;28;20258;-57
2022/01/06 11:12:27;;;;;;;2.37;1.60;;;3.90;1.00;;;;;;5055318;28;20497;-58
2022/01/06 11:14:53;;;;;;;3.00;1.63;;;4.20;1.00;;;;;;5072795;28;20536;-57
2022/01/06 11:17:21;;;;;;;4.87;1.67;;;;;;;;;;5054625;28;20447;-55
2022/01/06 11:19:49;;;;;;;4.90;2.00;;;4.50;1.00;;;;;;5072583;28;20464;-57
2022/01/06 11:22:16;;;;;;;5.57;2.40;;;4.50;1.00;;;;;;5071431;28;20531;-57
2022/01/06 11:24:52;;;;;;;4.67;2.33;;;4.70;1.00;;;;;;5072607;28;20441;-57
2022/01/06 11:27:35;;;;;;;2.03;1.80;;;4.80;1.00;;;;;;5074634;28;20553;-57
2022/01/06 11:30:13;;;;;;;4.53;2.60;;;4.70;1.00;;;;;;5073681;28;20451;-55
2022/01/06 11:32:39;;;;;;;5.30;2.10;;;4.40;1.00;;;;;;5072950;28;20462;-58
2022/01/06 11:35:11;;;;;;;2.40;2.20;;;4.40;1.00;;;;;;5074087;28;20492;-57
2022/01/06 11:37:51;;;;;;;3.80;1.80;;;4.50;1.00;;;;;;5078979;28;20197;-57
2022/01/06 11:40:32;;;;;;;5.33;1.80;;;4.50;1.00;;;;;;5072848;28;20916;-56
2022/01/06 11:42:59;;;;;;;12.80;2.90;;;4.50;1.00;;;;;;5072403;28;20817;-56
2022/01/06 11:45:25;;;;;;;4.40;2.07;;;4.50;1.00;;;;;;5076636;28;20444;-56
2022/01/06 11:48:09;;;;;;;3.60;2.27;;;4.50;1.00;;;;;;5072897;28;20775;-57
2022/01/06 11:50:43;;;;;;;1.90;1.70;;;4.60;1.00;;;;;;5071967;28;20491;-57
2022/01/06 11:53:09;;;;;;;3.70;2.20;;;4.60;1.00;;;;;;5072117;28;20462;-57
2022/01/06 11:55:38;;;;;;;6.10;1.90;;;4.70;1.00;;;;;;5073323;28;20433;-58
2022/01/06 11:58:10;;;;;;;5.83;2.83;;;4.50;1.00;;;;;;5054257;28;20440;-57
2022/01/06 12:00:39;;;;;;;4.73;1.80;;;4.50;1.00;;;;;;5070723;28;20447;-58
2022/01/06 12:03:14;;;;;;;3.13;2.00;;;4.90;1.00;;;;;;5071255;28;20443;-57
2022/01/06 12:05:42;;;;;;;1.77;1.43;;;5.00;1.00;;;;;;5054540;28;20560;-57
2022/01/06 12:08:08;;;;;;;2.00;1.40;;;5.00;1.00;;;;;;5072322;28;20476;-57
2022/01/06 12:11:00;;;;;;;2.40;1.50;;;5.00;1.00;;;;;;5072290;28;20951;-57
2022/01/06 12:13:25;;;;;;;2.10;1.20;;;5.20;1.00;;;;;;5068699;28;20307;-57
2022/01/06 12:15:56;;;;;;;1.53;1.27;;;4.90;1.00;;;;;;5071012;28;20529;-57
2022/01/06 12:18:27;;;;;;;3.23;1.47;;;5.00;1.00;;;;;;5070857;28;20650;-57
2022/01/06 12:20:55;;;;;;;3.53;1.80;;;5.10;1.00;;;;;;5056449;28;20452;-56
2022/01/06 12:23:21;;;;;;;4.67;3.60;;;5.10;1.00;;;;;;5049432;28;20478;-54
2022/01/06 12:25:55;;;;;;;3.03;1.10;;;4.90;1.00;;;;;;5051330;28;20831;-56
2022/01/06 12:28:21;;;;;;;4.17;1.47;;;;;;;;;;5050953;28;20451;-57
2022/01/06 12:30:47;;;;;;;3.17;1.77;;;5.20;1.00;;;;;;5050553;28;20512;-56
2022/01/06 12:33:14;;;;;;;4.63;1.47;;;;;;;;;;5050516;28;20554;-57
2022/01/06 12:35:40;;;;;;;5.60;1.90;;;5.40;1.00;;;;;;5051966;28;20529;-57
2022/01/06 12:38:06;;;;;;;10.60;1.90;;;5.30;1.00;;;;;;5050618;28;20753;-57
2022/01/06 12:40:43;;;;;;;4.77;1.20;;;5.20;1.00;;;;;;5050447;28;20451;-57
2022/01/06 12:43:23;;;;;;;3.20;1.10;;;5.40;1.00;;;;;;5050657;28;20434;-57
2022/01/06 12:46:01;;;;;;;3.13;1.50;;;5.30;1.00;;;;;;5082159;28;20538;-56
2022/01/06 12:48:32;;;;;;;3.40;1.40;;;5.10;1.00;;;;;;5051043;28;20439;-55
2022/01/06 12:50:59;;;;;;;3.17;1.73;;;5.00;1.00;;;;;;5050161;28;20469;-58
2022/01/06 12:53:35;;;;;;;2.60;1.10;;;5.00;1.00;;;;;;5050285;28;20528;-57
2022/01/06 12:56:01;;;;;;;3.20;1.50;;;5.20;1.00;;;;;;5048669;28;20452;-57
2022/01/06 12:58:32;;;;;;;5.63;1.73;;;5.40;1.00;;;;;;5052338;28;20441;-57
2022/01/06 13:01:09;;;;;;;2.50;1.57;;;5.40;1.00;;;;;;5052153;28;20244;-57
2022/01/06 13:03:40;;;;;;;2.60;1.47;;;5.40;1.00;;;;;;5051618;28;20502;-57
2022/01/06 13:06:08;;;;;;;2.40;1.60;;;5.40;1.00;;;;;;5047285;28;20448;-57
2022/01/06 13:08:44;;;;;;;4.27;1.27;;;5.30;1.00;;;;;;5050127;28;21003;-57
2022/01/06 13:11:09;;;;;;;3.17;1.90;;;5.30;1.00;;;;;;5050301;28;20438;-57
2022/01/06 13:13:51;;;;;;;4.40;2.47;;;5.20;1.00;;;;;;5050959;28;20469;-58
2022/01/06 13:16:22;;;;;;;3.17;1.37;;;4.90;1.00;;;;;;5052072;28;20182;-58
2022/01/06 13:18:59;;;;;;;2.13;1.53;;;4.80;1.00;;;;;;5050825;28;20478;-57
2022/01/06 13:21:33;;;;;;;3.67;1.63;;;4.80;1.00;;;;;;5058405;28;20445;-57
2022/01/06 13:24:18;;;;;;;5.80;2.23;;;4.80;1.00;;;;;;5067637;28;20507;-56
2022/01/06 13:26:58;;;;;;;3.17;1.63;;;5.00;1.00;;;;;;5069742;28;20485;-56
2022/01/06 13:29:38;;;;;;;6.33;1.83;;;5.20;1.00;;;;;;5071476;28;20453;-58
2022/01/06 13:32:10;;;;;;;3.23;1.90;;;5.30;1.00;;;;;;5057554;28;20535;-57
2022/01/06 13:34:40;;;;;;;2.77;1.20;;;5.40;1.00;;;;;;5055445;28;20447;-56